createdAt,value
2018-07-13T00:00:13.708Z,95014.28
2018-07-13T00:02:42.927Z,95013.61
2018-07-13T00:05:12.010Z,95013.65
2018-07-13T00:07:40.877Z,95008.67
2018-07-13T00:10:10.148Z,95011.23
2018-07-13T00:12:38.755Z,95003.05
2018-07-13T00:15:11.362Z,95005.32
2018-07-13T00:17:40.602Z,95016.92
2018-07-13T00:20:09.732Z,95016.05
2018-07-13T00:22:39.767Z,95012.72
2018-07-13T00:25:08.642Z,95006.42
2018-07-13T00:27:37.406Z,95009.42
2018-07-13T00:30:06.649Z,95019.12
2018-07-13T00:32:36.083Z,95019.41
2018-07-13T00:35:05.144Z,95017.30
2018-07-13T00:37:34.637Z,95022.56
2018-07-13T00:40:03.577Z,95008.69
2018-07-13T00:42:32.637Z,95011.70
2018-07-13T00:45:02.050Z,95011.16
2018-07-13T00:47:31.131Z,95007.84
2018-07-13T00:49:59.917Z,95005.53
2018-07-13T00:52:29.424Z,95016.78
2018-07-13T00:54:58.403Z,95004.55
2018-07-13T00:57:28.029Z,95013.94
2018-07-13T00:59:57.043Z,95020.52
2018-07-13T01:02:25.982Z,95015.49
2018-07-13T01:04:54.907Z,95021.16
2018-07-13T01:07:24.192Z,95020.45
2018-07-13T01:09:53.209Z,95018.23
2018-07-13T01:12:22.727Z,95011.84
2018-07-13T01:14:51.775Z,95012.31
2018-07-13T01:17:24.214Z,95013.34
2018-07-13T01:19:53.358Z,95007.98
2018-07-13T01:22:22.275Z,95011.07
2018-07-13T01:24:51.490Z,95012.22
2018-07-13T01:27:20.835Z,95005.91
2018-07-13T01:29:49.738Z,95005.27
2018-07-13T01:32:19.598Z,95012.90
2018-07-13T01:34:49.274Z,95010.25
2018-07-13T01:37:18.501Z,95011.16
2018-07-13T01:39:47.610Z,95014.94
2018-07-13T01:42:16.619Z,95018.63
2018-07-13T01:44:45.691Z,95014.35
2018-07-13T01:47:14.966Z,95016.81
2018-07-13T01:49:43.782Z,95013.55
2018-07-13T01:52:12.875Z,95015.21
2018-07-13T01:54:42.699Z,95015.75
2018-07-13T01:57:11.855Z,95012.70
2018-07-13T01:59:40.962Z,95017.92
2018-07-13T02:02:09.992Z,95020.41
2018-07-13T02:04:38.706Z,95014.88
2018-07-13T02:07:07.757Z,95017.83
2018-07-13T02:09:37.388Z,95026.80
2018-07-13T02:12:06.531Z,95021.52
2018-07-13T02:14:35.422Z,95026.54
2018-07-13T02:17:05.180Z,95019.51
2018-07-13T02:19:34.258Z,95028.67
2018-07-13T02:22:03.733Z,95028.19
2018-07-13T02:24:33.206Z,95024.80
2018-07-13T02:27:02.016Z,95027.03
2018-07-13T02:29:30.863Z,95029.05
2018-07-13T02:32:00.192Z,95035.00
2018-07-13T02:34:28.864Z,95036.81
2018-07-13T02:36:58.045Z,95033.41
2018-07-13T02:39:27.246Z,95033.27
2018-07-13T02:41:55.997Z,95033.41
2018-07-13T02:44:24.939Z,95035.05
2018-07-13T02:46:54.451Z,95033.91
2018-07-13T02:49:23.324Z,95025.20
2018-07-13T02:51:52.932Z,95025.88
2018-07-13T02:54:22.155Z,95023.73
2018-07-13T02:56:51.662Z,95025.39
2018-07-13T02:59:20.540Z,95021.23
2018-07-13T03:01:49.962Z,95026.28
2018-07-13T03:04:19.019Z,95027.18
2018-07-13T03:06:48.344Z,95029.07
2018-07-13T03:09:17.517Z,95022.63
2018-07-13T03:11:46.635Z,95026.92
2018-07-13T03:14:16.558Z,95018.52
2018-07-13T03:16:45.594Z,95023.70
2018-07-13T03:19:14.423Z,95026.31
2018-07-13T03:21:43.115Z,95031.97
2018-07-13T03:24:12.344Z,95027.30
2018-07-13T03:26:41.288Z,95034.66
2018-07-13T03:29:10.316Z,95033.78
2018-07-13T03:31:39.932Z,95032.50
2018-07-13T03:34:09.523Z,95032.36
2018-07-13T03:36:38.593Z,95033.48
2018-07-13T03:39:07.979Z,95029.86
2018-07-13T03:41:37.131Z,95030.68
2018-07-13T03:44:06.940Z,95022.39
2018-07-13T03:46:36.356Z,95027.70
2018-07-13T03:49:05.231Z,95021.34
2018-07-13T03:51:34.539Z,95029.49
2018-07-13T03:54:03.582Z,95032.75
2018-07-13T03:56:32.819Z,95032.28
2018-07-13T03:59:01.847Z,95030.47
2018-07-13T04:01:31.135Z,95034.08
2018-07-13T04:03:59.918Z,95038.29
2018-07-13T04:06:28.640Z,95035.56
2018-07-13T04:08:58.139Z,95039.74
2018-07-13T04:11:27.821Z,95036.83
2018-07-13T04:13:57.233Z,95034.66
2018-07-13T04:16:26.669Z,95034.66
2018-07-13T04:18:56.246Z,95030.47
2018-07-13T04:21:25.346Z,95026.70
2018-07-13T04:23:55.080Z,95030.11
2018-07-13T04:26:24.076Z,95029.85
2018-07-13T04:28:53.253Z,95032.91
2018-07-13T04:31:22.563Z,95024.30
2018-07-13T04:33:51.447Z,95029.42
2018-07-13T04:36:20.122Z,95020.55
2018-07-13T04:38:49.166Z,95032.49
2018-07-13T04:41:18.218Z,95030.20
2018-07-13T04:43:47.113Z,95018.28
2018-07-13T04:46:17.351Z,95021.27
2018-07-13T04:48:46.522Z,95024.03
2018-07-13T04:51:15.493Z,95019.86
2018-07-13T04:53:44.845Z,95020.42
2018-07-13T04:56:14.253Z,95017.14
2018-07-13T04:58:43.544Z,95019.23
2018-07-13T05:01:13.051Z,95013.92
2018-07-13T05:03:42.346Z,95014.45
2018-07-13T05:06:11.399Z,95020.08
2018-07-13T05:08:41.071Z,95013.39
2018-07-13T05:11:10.139Z,95021.44
2018-07-13T05:13:39.447Z,95019.05
2018-07-13T05:16:09.207Z,95021.21
2018-07-13T05:18:38.157Z,95023.66
2018-07-13T05:21:07.468Z,95017.88
2018-07-13T05:23:36.784Z,95022.11
2018-07-13T05:26:06.070Z,95022.86
2018-07-13T05:28:35.210Z,95030.47
2018-07-13T05:31:04.505Z,95031.10
2018-07-13T05:33:33.662Z,95025.45
2018-07-13T05:36:02.855Z,95026.45
2018-07-13T05:38:32.216Z,95031.10
2018-07-13T05:41:01.484Z,95018.66
2018-07-13T05:43:30.675Z,95027.63
2018-07-13T05:46:04.552Z,95030.66
2018-07-13T05:48:34.484Z,95032.11
2018-07-13T05:51:03.669Z,95029.88
2018-07-13T05:53:32.753Z,95030.41
2018-07-13T05:56:02.568Z,95028.91
2018-07-13T05:58:31.739Z,95030.97
2018-07-13T06:01:00.906Z,95030.28
2018-07-13T06:03:31.336Z,95028.03
2018-07-13T06:06:01.075Z,95029.73
2018-07-13T06:08:32.061Z,95028.39
2018-07-13T06:11:03.088Z,95029.53
2018-07-13T06:13:34.671Z,95028.80
2018-07-13T06:16:06.564Z,95030.61
2018-07-13T06:18:35.343Z,95027.86
2018-07-13T06:21:04.742Z,95031.31
2018-07-13T06:23:34.011Z,95033.56
2018-07-13T06:26:03.186Z,95037.61
2018-07-13T06:28:32.483Z,95030.05
2018-07-13T06:31:01.763Z,95030.16
2018-07-13T06:33:30.916Z,95024.47
2018-07-13T06:35:59.621Z,95016.87
2018-07-13T06:38:28.966Z,95015.81
2018-07-13T06:40:59.307Z,95011.41
2018-07-13T06:43:28.276Z,95003.57
2018-07-13T06:45:57.826Z,95011.76
2018-07-13T06:48:26.907Z,95014.45
2018-07-13T06:50:55.998Z,95008.80
2018-07-13T06:53:24.894Z,95013.84
2018-07-13T06:55:54.437Z,95009.48
2018-07-13T06:58:35.056Z,95006.36
2018-07-13T07:01:06.878Z,95014.53
2018-07-13T07:03:42.962Z,95018.61
2018-07-13T07:06:13.884Z,95013.92
2018-07-13T07:08:47.275Z,95021.86
2018-07-13T07:11:16.562Z,95025.03
2018-07-13T07:13:46.651Z,95020.16
2018-07-13T07:16:16.179Z,95019.81
2018-07-13T07:18:44.998Z,95027.73
2018-07-13T07:21:13.788Z,95026.30
2018-07-13T07:23:42.890Z,95018.83
2018-07-13T07:26:12.195Z,95022.30
2018-07-13T07:28:41.237Z,95018.48
2018-07-13T07:31:10.187Z,95013.03
2018-07-13T07:33:39.185Z,95009.24
2018-07-13T07:36:08.506Z,95001.77
2018-07-13T07:38:37.472Z,95003.23
2018-07-13T07:41:06.781Z,95001.88
2018-07-13T07:43:35.761Z,95007.88
2018-07-13T07:46:04.752Z,95005.17
2018-07-13T07:48:33.578Z,95004.97
2018-07-13T07:51:02.639Z,95006.75
2018-07-13T07:53:31.747Z,95010.84
2018-07-13T07:56:02.355Z,95004.17
2018-07-13T07:58:31.174Z,95002.56
2018-07-13T08:01:00.314Z,95005.51
2018-07-13T08:03:29.151Z,95003.23
2018-07-13T08:05:58.127Z,95004.02
2018-07-13T08:08:27.215Z,95012.47
2018-07-13T08:10:56.519Z,95010.25
2018-07-13T08:13:25.485Z,95012.81
2018-07-13T08:15:54.231Z,95018.02
2018-07-13T08:18:23.559Z,95016.81
2018-07-13T08:20:52.478Z,95012.46
2018-07-13T08:23:21.568Z,95011.55
2018-07-13T08:25:51.015Z,95012.29
2018-07-13T08:28:20.122Z,95011.73
2018-07-13T08:30:51.941Z,95014.14
2018-07-13T08:33:21.005Z,95005.33
2018-07-13T08:35:49.872Z,95007.36
2018-07-13T08:38:19.013Z,95018.38
2018-07-13T08:40:48.278Z,95012.03
2018-07-13T08:43:17.399Z,95008.79
2018-07-13T08:45:46.288Z,95000.63
2018-07-13T08:48:15.342Z,95004.23
2018-07-13T08:50:44.462Z,95002.33
2018-07-13T08:53:13.623Z,94997.19
2018-07-13T08:55:42.967Z,95005.59
2018-07-13T08:58:11.906Z,95001.91
2018-07-13T09:00:41.147Z,95010.55
2018-07-13T09:03:10.563Z,95001.57
2018-07-13T09:05:40.009Z,95004.17
2018-07-13T09:08:08.959Z,95008.05
2018-07-13T09:10:38.480Z,94989.33
2018-07-13T09:13:07.745Z,95008.62
2018-07-13T09:15:36.956Z,95002.73
2018-07-13T09:18:06.559Z,94998.58
2018-07-13T09:20:35.559Z,94999.22
2018-07-13T09:23:04.575Z,94999.37
2018-07-13T09:25:33.995Z,94994.20
2018-07-13T09:28:03.052Z,94990.70
2018-07-13T09:30:31.907Z,94983.20
2018-07-13T09:33:00.884Z,94978.14
2018-07-13T09:35:29.831Z,94975.19
2018-07-13T09:37:59.379Z,94968.00
2018-07-13T09:40:28.758Z,94967.14
2018-07-13T09:42:58.835Z,94961.59
2018-07-13T09:45:27.671Z,94969.30
2018-07-13T09:47:56.971Z,94962.36
2018-07-13T09:50:25.949Z,94958.16
2018-07-13T09:52:55.397Z,94967.44
2018-07-13T09:55:24.367Z,94956.06
2018-07-13T09:57:53.660Z,94954.61
2018-07-13T10:00:22.829Z,94949.93
2018-07-13T10:02:52.473Z,94947.11
2018-07-13T10:05:21.660Z,94951.53
2018-07-13T10:07:50.635Z,94946.58
2018-07-13T10:10:19.752Z,94950.30
2018-07-13T10:12:48.643Z,94946.09
2018-07-13T10:15:17.736Z,94942.51
2018-07-13T10:17:46.707Z,94941.41
2018-07-13T10:20:15.622Z,94940.91
2018-07-13T10:22:45.222Z,94941.16
2018-07-13T10:25:14.471Z,94934.90
2018-07-13T10:27:43.532Z,94930.78
2018-07-13T10:30:13.839Z,94931.71
2018-07-13T10:32:44.339Z,94928.14
2018-07-13T10:35:13.551Z,94929.58
2018-07-13T10:37:42.974Z,94923.03
2018-07-13T10:40:11.898Z,94924.79
2018-07-13T10:42:40.771Z,94914.81
2018-07-13T10:45:09.673Z,94924.67
2018-07-13T10:47:40.376Z,94928.41
2018-07-13T10:50:09.164Z,94934.24
2018-07-13T10:52:38.381Z,94924.47
2018-07-13T10:55:09.638Z,94924.64
2018-07-13T10:57:38.602Z,94923.32
2018-07-13T11:00:08.206Z,94927.73
2018-07-13T11:02:37.609Z,94931.94
2018-07-13T11:05:06.415Z,94931.64
2018-07-13T11:07:35.683Z,94926.16
2018-07-13T11:10:05.617Z,94925.14
2018-07-13T11:12:34.731Z,94931.86
2018-07-13T11:15:03.650Z,94929.45
2018-07-13T11:17:33.418Z,94932.72
2018-07-13T11:20:02.423Z,94922.53
2018-07-13T11:22:31.066Z,94920.70
2018-07-13T11:25:00.247Z,94923.89
2018-07-13T11:27:29.028Z,94914.89
2018-07-13T11:29:57.991Z,94927.73
2018-07-13T11:32:27.253Z,94923.76
2018-07-13T11:34:56.254Z,94927.38
2018-07-13T11:37:25.045Z,94946.94
2018-07-13T11:39:54.367Z,94957.98
2018-07-13T11:42:23.285Z,94951.94
2018-07-13T11:44:52.558Z,94960.82
2018-07-13T11:47:21.571Z,94951.66
2018-07-13T11:49:51.028Z,94936.47
2018-07-13T11:52:20.004Z,94940.13
2018-07-13T11:54:49.390Z,94949.52
2018-07-13T11:57:18.532Z,94939.13
2018-07-13T11:59:47.970Z,94938.84
2018-07-13T12:02:17.316Z,94935.23
2018-07-13T12:04:46.957Z,94930.36
2018-07-13T12:07:15.764Z,94949.73
2018-07-13T12:09:44.791Z,94952.53
2018-07-13T12:12:14.786Z,94951.67
2018-07-13T12:14:44.131Z,94955.41
2018-07-13T12:17:13.753Z,94954.32
2018-07-13T12:19:42.567Z,94955.59
2018-07-13T12:22:11.867Z,94958.52
2018-07-13T12:24:41.285Z,94959.07
2018-07-13T12:27:10.427Z,94944.69
2018-07-13T12:29:39.236Z,94964.92
2018-07-13T12:32:08.703Z,94967.03
2018-07-13T12:34:38.670Z,94980.77
2018-07-13T12:37:08.368Z,94960.17
2018-07-13T12:39:37.545Z,94968.14
2018-07-13T12:42:06.531Z,94962.41
2018-07-13T12:44:35.570Z,94962.72
2018-07-13T12:47:04.887Z,94959.72
2018-07-13T12:49:33.542Z,94955.06
2018-07-13T12:52:02.435Z,94953.55
2018-07-13T12:54:31.704Z,94943.80
2018-07-13T12:57:00.633Z,94942.75
2018-07-13T12:59:30.925Z,94951.09
2018-07-13T13:01:59.960Z,94942.47
2018-07-13T13:04:28.707Z,94950.06
2018-07-13T13:06:57.824Z,94938.50
2018-07-13T13:09:27.045Z,94935.20
2018-07-13T13:11:55.934Z,94928.23
2018-07-13T13:14:25.129Z,94925.23
2018-07-13T13:16:54.429Z,94917.67
2018-07-13T13:19:23.616Z,94918.52
2018-07-13T13:21:52.912Z,94906.53
2018-07-13T13:24:21.844Z,94891.09
2018-07-13T13:26:50.601Z,94894.28
2018-07-13T13:29:22.930Z,94898.49
2018-07-13T13:31:57.575Z,94901.33
2018-07-13T13:34:26.691Z,94869.84
2018-07-13T13:36:55.711Z,94891.76
2018-07-13T13:39:24.528Z,94890.34
2018-07-13T13:41:53.847Z,94900.78
2018-07-13T13:44:22.871Z,94909.16
2018-07-13T13:46:51.910Z,94908.19
2018-07-13T13:49:21.628Z,94910.75
2018-07-13T13:51:50.719Z,94915.70
2018-07-13T13:54:19.718Z,94917.34
2018-07-13T13:56:49.958Z,94916.73
2018-07-13T13:59:19.211Z,94919.01
2018-07-13T14:01:48.111Z,94933.66
2018-07-13T14:04:17.555Z,94934.86
2018-07-13T14:06:46.655Z,94930.51
2018-07-13T14:09:15.870Z,94934.52
2018-07-13T14:11:45.698Z,94932.17
2018-07-13T14:14:14.726Z,94946.70
2018-07-13T14:16:43.835Z,94946.88
2018-07-13T14:19:13.251Z,94955.27
2018-07-13T14:21:42.347Z,94962.39
2018-07-13T14:24:11.341Z,94952.68
2018-07-13T14:26:40.397Z,94945.76
2018-07-13T14:29:09.263Z,94936.96
2018-07-13T14:31:38.109Z,94924.63
2018-07-13T14:34:08.026Z,94917.84
2018-07-13T14:36:36.998Z,94914.52
2018-07-13T14:39:08.363Z,94915.17
2018-07-13T14:41:37.818Z,94926.08
2018-07-13T14:44:06.978Z,94926.37
2018-07-13T14:46:36.095Z,94918.30
2018-07-13T14:49:05.075Z,94910.16
2018-07-13T14:51:34.455Z,94899.78
2018-07-13T14:54:03.880Z,94905.72
2018-07-13T14:56:32.976Z,94897.73
2018-07-13T14:59:01.993Z,94897.22
2018-07-13T15:01:31.480Z,94902.13
2018-07-13T15:04:00.594Z,94896.33
2018-07-13T15:06:29.772Z,94895.68
2018-07-13T15:08:59.443Z,94894.17
2018-07-13T15:11:28.472Z,94885.97
2018-07-13T15:13:57.467Z,94886.29
2018-07-13T15:16:26.703Z,94889.86
2018-07-13T15:18:55.874Z,94892.17
2018-07-13T15:21:24.971Z,94890.42
2018-07-13T15:23:54.903Z,94895.20
2018-07-13T15:26:23.944Z,94896.55
2018-07-13T15:28:52.883Z,94893.17
2018-07-13T15:31:22.004Z,94891.42
2018-07-13T15:33:50.971Z,94894.63
2018-07-13T15:36:20.066Z,94895.84
2018-07-13T15:38:49.456Z,94896.31
2018-07-13T15:41:18.359Z,94906.20
2018-07-13T15:43:47.472Z,94901.40
2018-07-13T15:46:16.589Z,94903.55
2018-07-13T15:48:45.635Z,94904.67
2018-07-13T15:51:14.469Z,94908.64
2018-07-13T15:53:44.318Z,94911.38
2018-07-13T15:56:14.367Z,94912.77
2018-07-13T15:58:43.555Z,94905.32
2018-07-13T16:01:12.461Z,94908.79
2018-07-13T16:03:41.487Z,94913.67
2018-07-13T16:06:10.749Z,94906.28
2018-07-13T16:08:39.896Z,94905.62
2018-07-13T16:11:08.956Z,94902.09
2018-07-13T16:13:37.971Z,94903.89
2018-07-13T16:16:07.150Z,94901.23
2018-07-13T16:18:36.414Z,94899.76
2018-07-13T16:21:05.345Z,94898.81
2018-07-13T16:23:34.416Z,94891.70
2018-07-13T16:26:03.334Z,94886.34
2018-07-13T16:28:32.691Z,94889.71
2018-07-13T16:31:01.747Z,94893.26
2018-07-13T16:33:31.512Z,94893.28
2018-07-13T16:36:00.830Z,94891.54
2018-07-13T16:38:30.555Z,94889.16
2018-07-13T16:40:59.795Z,94891.98
2018-07-13T16:43:30.703Z,94891.66
2018-07-13T16:46:00.792Z,94898.88
2018-07-13T16:48:29.614Z,94902.08
2018-07-13T16:50:58.633Z,94895.77
2018-07-13T16:53:27.808Z,94893.70
2018-07-13T16:55:56.701Z,94895.48
2018-07-13T16:58:25.901Z,94895.34
2018-07-13T17:00:54.831Z,94905.16
2018-07-13T17:03:24.042Z,94907.70
2018-07-13T17:05:53.904Z,94910.34
2018-07-13T17:08:24.173Z,94913.55
2018-07-13T17:10:53.208Z,94910.64
2018-07-13T17:13:22.187Z,94916.38
2018-07-13T17:15:51.014Z,94917.37
2018-07-13T17:18:20.299Z,94921.85
2018-07-13T17:20:49.264Z,94916.97
2018-07-13T17:23:18.470Z,94928.69
2018-07-13T17:25:47.163Z,94928.50
2018-07-13T17:28:16.267Z,94928.42
2018-07-13T17:30:45.198Z,94932.73
2018-07-13T17:33:14.187Z,94937.27
2018-07-13T17:35:42.994Z,94936.58
2018-07-13T17:38:12.011Z,94948.23
2018-07-13T17:40:42.083Z,94942.79
2018-07-13T17:43:11.254Z,94947.00
2018-07-13T17:45:40.159Z,94941.03
2018-07-13T17:48:09.206Z,94943.62
2018-07-13T17:50:38.123Z,94948.15
2018-07-13T17:53:07.087Z,94954.89
2018-07-13T17:55:36.247Z,94952.25
2018-07-13T17:58:05.247Z,94959.96
2018-07-13T18:00:34.900Z,94952.38
2018-07-13T18:03:03.962Z,94962.66
2018-07-13T18:05:33.023Z,94969.37
2018-07-13T18:08:02.139Z,94966.56
2018-07-13T18:10:31.631Z,94970.26
2018-07-13T18:13:00.815Z,94970.47
2018-07-13T18:15:30.040Z,94971.90
2018-07-13T18:17:59.124Z,94974.00
2018-07-13T18:20:28.292Z,94975.30
2018-07-13T18:22:57.670Z,94984.72
2018-07-13T18:25:26.805Z,94983.72
2018-07-13T18:27:55.716Z,94986.27
2018-07-13T18:30:24.888Z,94992.70
2018-07-13T18:32:53.819Z,94991.23
2018-07-13T18:35:22.623Z,94996.00
2018-07-13T18:37:51.806Z,95006.04
2018-07-13T18:40:20.688Z,95012.94
2018-07-13T18:42:49.669Z,95011.77
2018-07-13T18:45:18.898Z,95016.30
2018-07-13T18:47:47.593Z,95020.01
2018-07-13T18:50:16.680Z,95018.69
2018-07-13T18:52:45.599Z,95022.36
2018-07-13T18:55:14.451Z,95023.15
2018-07-13T18:57:43.331Z,95030.00
2018-07-13T19:00:12.589Z,95030.22
2018-07-13T19:02:41.643Z,95029.77
2018-07-13T19:05:10.432Z,95032.12
2018-07-13T19:07:39.753Z,95032.50
2018-07-13T19:10:08.645Z,95035.22
2018-07-13T19:12:37.436Z,95031.05
2018-07-13T19:15:06.799Z,95028.05
2018-07-13T19:17:35.721Z,95035.81
2018-07-13T19:20:04.593Z,95032.92
2018-07-13T19:22:33.600Z,95031.08
2018-07-13T19:25:02.263Z,95033.98
2018-07-13T19:27:31.343Z,95029.59
2018-07-13T19:30:00.761Z,95036.69
2018-07-13T19:32:29.585Z,95034.34
2018-07-13T19:34:58.447Z,95035.42
2018-07-13T19:37:28.530Z,95038.87
2018-07-13T19:39:57.582Z,95042.66
2018-07-13T19:42:27.284Z,95041.37
2018-07-13T19:44:56.603Z,95039.34
2018-07-13T19:47:26.603Z,95034.91
2018-07-13T19:49:55.924Z,95035.34
2018-07-13T19:52:25.735Z,95037.60
2018-07-13T19:54:55.158Z,95042.85
2018-07-13T19:57:24.371Z,95045.53
2018-07-13T19:59:53.649Z,95044.69
2018-07-13T20:02:22.603Z,95042.62
2018-07-13T20:04:51.617Z,95037.49
2018-07-13T20:07:20.629Z,95039.73
2018-07-13T20:09:49.702Z,95043.08
2018-07-13T20:12:19.139Z,95043.06
2018-07-13T20:14:48.142Z,95048.33
2018-07-13T20:17:17.030Z,95044.75
2018-07-13T20:19:45.883Z,95045.73
2018-07-13T20:22:15.192Z,95053.13
2018-07-13T20:24:44.091Z,95045.17
2018-07-13T20:27:12.795Z,95045.61
2018-07-13T20:29:41.918Z,95040.98
2018-07-13T20:32:10.877Z,95042.39
2018-07-13T20:34:40.453Z,95042.38
2018-07-13T20:37:10.096Z,95042.91
2018-07-13T20:39:39.354Z,95047.53
2018-07-13T20:42:08.571Z,95055.47
2018-07-13T20:44:37.398Z,95053.95
2018-07-13T20:47:06.852Z,95057.62
2018-07-13T20:49:35.806Z,95058.79
2018-07-13T20:52:06.106Z,95058.45
2018-07-13T20:54:35.202Z,95064.25
2018-07-13T20:57:03.852Z,95064.68
2018-07-13T20:59:32.904Z,95064.28
2018-07-13T21:02:01.791Z,95058.27
2018-07-13T21:04:30.862Z,95067.48
2018-07-13T21:07:00.038Z,95055.67
2018-07-13T21:09:28.914Z,95061.06
2018-07-13T21:11:57.743Z,95058.15
2018-07-13T21:14:26.574Z,95051.28
2018-07-13T21:16:55.635Z,95056.31
2018-07-13T21:19:25.230Z,95053.83
2018-07-13T21:21:54.363Z,95060.09
2018-07-13T21:24:23.648Z,95063.94
2018-07-13T21:26:52.587Z,95064.36
2018-07-13T21:29:21.554Z,95061.25
2018-07-13T21:31:50.735Z,95066.69
2018-07-13T21:34:19.859Z,95070.64
2018-07-13T21:36:48.731Z,95073.61
2018-07-13T21:39:17.722Z,95072.34
2018-07-13T21:41:46.465Z,95073.45
2018-07-13T21:44:15.841Z,95071.03
2018-07-13T21:46:44.882Z,95073.62
2018-07-13T21:49:13.879Z,95067.46
2018-07-13T21:51:43.208Z,95067.37
2018-07-13T21:54:12.082Z,95061.34
2018-07-13T21:56:41.591Z,95054.73
2018-07-13T21:59:10.723Z,95053.33
2018-07-13T22:01:39.760Z,95050.39
2018-07-13T22:04:08.545Z,95056.39
2018-07-13T22:06:37.754Z,95058.72
2018-07-13T22:09:07.047Z,95052.52
2018-07-13T22:11:36.075Z,95052.05
2018-07-13T22:14:05.173Z,95048.90
2018-07-13T22:16:34.778Z,95055.41
2018-07-13T22:19:04.091Z,95055.22
2018-07-13T22:21:33.627Z,95057.80
2018-07-13T22:24:02.940Z,95063.16
2018-07-13T22:26:31.826Z,95059.91
2018-07-13T22:29:00.699Z,95063.20
2018-07-13T22:31:29.995Z,95067.55
2018-07-13T22:33:58.867Z,95072.20
2018-07-13T22:36:27.800Z,95068.31
2018-07-13T22:38:56.849Z,95067.55
2018-07-13T22:41:26.262Z,95066.70
2018-07-13T22:43:55.645Z,95069.66
2018-07-13T22:46:25.266Z,95068.78
2018-07-13T22:48:54.334Z,95057.30
2018-07-13T22:51:23.595Z,95053.23
2018-07-13T22:53:53.311Z,95054.84
2018-07-13T22:56:22.708Z,95056.95
2018-07-13T22:58:51.716Z,95057.71
2018-07-13T23:01:21.263Z,95063.80
2018-07-13T23:03:50.019Z,95067.98
2018-07-13T23:06:19.188Z,95059.49
2018-07-13T23:08:48.152Z,95059.73
2018-07-13T23:11:17.160Z,95061.18
2018-07-13T23:13:46.217Z,95061.34
2018-07-13T23:16:15.235Z,95063.92
2018-07-13T23:18:43.987Z,95061.86
2018-07-13T23:21:13.465Z,95064.30
2018-07-13T23:23:42.476Z,95062.23
2018-07-13T23:26:11.313Z,95057.92
2018-07-13T23:28:41.788Z,95058.44
2018-07-13T23:31:10.871Z,95061.98
2018-07-13T23:33:40.143Z,95059.53
2018-07-13T23:36:09.276Z,95059.32
2018-07-13T23:38:38.378Z,95057.84
2018-07-13T23:41:07.565Z,95060.58
2018-07-13T23:43:36.766Z,95062.63
2018-07-13T23:46:05.962Z,95051.02
2018-07-13T23:48:35.150Z,95060.30
2018-07-13T23:51:05.568Z,95059.23
2018-07-13T23:53:34.577Z,95058.60
2018-07-13T23:56:04.388Z,95060.42
2018-07-13T23:58:33.699Z,95061.39
